Saint-Malo, Canada
Current Conditions -  °F | °C
As of 8:00 AM on Thursday 30 Oct 2014 (Local Time) from CYSC Reporting Station
Overcast Overcast  
Wind Chill: 38°   Ceiling: 1700
Heat Index: 43°   Visibility: 9mi
Dew Point: 37°   Wind: 8mph
Humidity: 81%   Direction: 320°NW
Pressure: 29.89"   Gusts: NA
Location:  45.2°N, 71.5°W
Report Text: CYSC 301200Z AUTO 32007KT 9SM BKN017 OVC029 06/03 A2989 RMK SLP127
Loading
Personal Weather Stations






























Interactive Weather Map
Tropical Storm Tracking
New forecast layout! Learn more

10-Day Weather Forecast

Advertisements
Track Severe Weather on mobile